UTAK

Details ICAO UTAK (KRW)
Name TURKMENBASHI
Region Tajikistan, Turkmenistan and Uzbekistan
Timezone Asia/Ashgabat (UTC+5.0)
Plans Departing 32
Arriving 27
Stats Elevation 279 ft / 85 m (AMSL)
Location 40.063472° 53.007222°
Runways 1
Magnetic Variation 6.029° E
Sunrise 2018-05-27 01:05:12 UTC / 2018-05-27 06:05:12 Local
Sunset 2018-05-27 15:47:54 UTC / 2018-05-27 20:47:54 Local
Advertisement - Login to hide

Runways

ID Width Length Bearing (true) Bearing (mag) Surface Threshold Offset Overrun Length
16 144 ft / 44 m 8,221 ft / 2,506 m 166.91° 160.88° Concrete 0 ft / 0 m 0 ft / 0 m
34 144 ft / 44 m 8,221 ft / 2,506 m 346.91° 340.88° Concrete 0 ft / 0 m 0 ft / 0 m

Map

Weather


0- 5 10 15 20 25 30 35+ Temperature / ° C

Clouds and Precipitation
Forecast for 2018-05-27 12:00 UTC. Updated an hour ago

Ground ~20,000 ft ~40,000 ft Winds

METAR

UTAK 271000Z 01021KT CAVOK 23/03 Q1021 NOSIG

TAF

TAF AMD UTAK 270230Z 2703/2724 33024G34KT 4000 BLDU BKN020 SCT033CB BKN100 530009 TEMPO 2703/2707 VRB34KT 2000 DS TSRA BKN010 570004 BECMG 2708/2710 36024KT 9999 SCT023 SCT040CB BKN100

Frequencies

Ground 121.70 MHz GND
Approach 120.00 MHz APP
Tower 124.00 MHz TWR
Warning: Do not use this data for real-world aviation or navigation. No guarantee of current accuracy is given.